| time (UTC) | temp C | wind direction | speed KPH | gust KPH | rain 1hr cm | rain 24hr cm | rain mn cm | humidity % | barometer mb |
| 20260507031551 | 13 | 0 | 1.6 | 6.4 | 0.00 | 0.00 | 0.00 | 78 | 1019.7 |
| 20260507030054 | 13 | 217 | 1.6 | 8.0 | 0.00 | 0.00 | 0.00 | 77 | 1019.5 |
| 20260507024601 | 13 | 0 | 1.6 | 6.4 | 0.00 | 0.00 | 0.00 | 77 | 1019.5 |
| 20260507023051 | 13 | 209 | 1.6 | 11.3 | 0.00 | 0.00 | 0.00 | 77 | 1019.4 |
| 20260507021554 | 13 | 237 | 3.2 | 14.5 | 0.00 | 0.00 | 0.00 | 76 | 1019.3 |
| 20260507020107 | 13 | 182 | 1.6 | 11.3 | 0.00 | 0.00 | 0.00 | 76 | 1019.4 |
| 20260507014606 | 13 | 184 | 1.6 | 12.9 | 0.00 | 0.00 | 0.00 | 77 | 1019.4 |
| 20260507013051 | 13 | 228 | 1.6 | 6.4 | 0.00 | 0.00 | 0.00 | 77 | 1019.5 |
| 20260507011547 | 13 | 249 | 3.2 | 11.3 | 0.00 | 0.00 | 0.00 | 76 | 1019.5 |
| 20260507010049 | 13 | 252 | 4.8 | 9.7 | 0.00 | 0.00 | 0.00 | 76 | 1019.5 |
| 20260507004551 | 13 | 280 | 3.2 | 9.7 | 0.00 | 0.00 | 0.00 | 76 | 1019.6 |
| 20260507003047 | 13 | 202 | 4.8 | 12.9 | 0.00 | 0.00 | 0.00 | 76 | 1019.7 |
| 20260507001553 | 13 | 210 | 3.2 | 11.3 | 0.00 | 0.00 | 0.00 | 76 | 1019.7 |
| 20260507000046 | 13 | 259 | 6.4 | 14.5 | 0.00 | 0.00 | 0.00 | 75 | 1019.7 |
| 20260506234559 | 13 | 237 | 3.2 | 14.5 | 0.00 | 0.00 | 0.00 | 75 | 1019.7 |
| 20260506233052 | 13 | 225 | 3.2 | 9.7 | 0.00 | 0.00 | 0.00 | 74 | 1019.8 |
| 20260506231556 | 13 | 260 | 1.6 | 11.3 | 0.00 | 0.00 | 0.00 | 75 | 1019.8 |
| 20260506230057 | 13 | 214 | 1.6 | 4.8 | 0.00 | 0.00 | 0.00 | 76 | 1019.8 |
| 20260506224550 | 13 | 286 | 1.6 | 12.9 | 0.00 | 0.00 | 0.00 | 76 | 1019.8 |
| 20260506223056 | 13 | 209 | 6.4 | 14.5 | 0.00 | 0.00 | 0.00 | 76 | 1019.9 |
| 20260506221550 | 13 | 227 | 3.2 | 11.3 | 0.00 | 0.00 | 0.00 | 76 | 1020.0 |
| 20260506220055 | 13 | 178 | 3.2 | 8.0 | 0.00 | 0.00 | 0.00 | 77 | 1020.0 |
| 20260506214548 | 13 | 236 | 3.2 | 11.3 | 0.00 | 0.00 | 0.00 | 78 | 1020.1 |
| 20260506213104 | 13 | 236 | 1.6 | 11.3 | 0.00 | 0.00 | 0.00 | 79 | 1020.1 |
| 20260506211603 | 13 | 252 | 3.2 | 9.7 | 0.00 | 0.00 | 0.00 | 78 | 1020.2 |
| 20260506210051 | 13 | 197 | 1.6 | 11.3 | 0.00 | 0.00 | 0.00 | 79 | 1020.0 |
| 20260506204555 | 13 | 167 | 3.2 | 9.7 | 0.00 | 0.00 | 0.00 | 80 | 1020.0 |
| 20260506203048 | 12 | 240 | 6.4 | 14.5 | 0.00 | 0.00 | 0.00 | 80 | 1019.9 |
| 20260506201600 | 12 | 229 | 3.2 | 11.3 | 0.00 | 0.00 | 0.00 | 82 | 1020.0 |
| 20260506200053 | 12 | 231 | 1.6 | 9.7 | 0.00 | 0.00 | 0.00 | 83 | 1019.9 |
| 20260506194557 | 12 | 197 | 3.2 | 9.7 | 0.00 | 0.00 | 0.00 | 85 | 1019.8 |
| 20260506193048 | 12 | 273 | 0.0 | 6.4 | 0.00 | 0.00 | 0.00 | 86 | 1019.7 |
| 20260506191547 | 12 | 188 | 3.2 | 8.0 | 0.00 | 0.00 | 0.00 | 85 | 1019.5 |
| 20260506190050 | 12 | 259 | 1.6 | 9.7 | 0.00 | 0.00 | 0.00 | 86 | 1019.5 |
| 20260506184603 | 12 | 223 | 1.6 | 8.0 | 0.00 | 0.00 | 0.00 | 87 | 1019.7 |
| 20260506183059 | 12 | 0 | 1.6 | 6.4 | 0.00 | 0.00 | 0.00 | 87 | 1019.6 |
| 20260506181550 | 12 | 182 | 3.2 | 9.7 | 0.00 | 0.00 | 0.00 | 88 | 1019.6 |
| 20260506180056 | 12 | 169 | 6.4 | 14.5 | 0.00 | 0.00 | 0.00 | 88 | 1019.2 |
| 20260506174549 | 12 | 170 | 1.6 | 9.7 | 0.00 | 0.00 | 0.00 | 90 | 1019.3 |
| 20260506173052 | 11 | 171 | 3.2 | 11.3 | 0.00 | 0.00 | 0.00 | 91 | 1019.5 |
| 20260506171552 | 11 | 262 | 3.2 | 11.3 | 0.00 | 0.00 | 0.00 | 92 | 1019.6 |
| 20260506170108 | 11 | 192 | 3.2 | 11.3 | 0.00 | 0.00 | 0.00 | 92 | 1019.3 |
| 20260506164547 | 11 | 202 | 1.6 | 6.4 | 0.00 | 0.00 | 0.00 | 92 | 1019.3 |
| 20260506163102 | 11 | 217 | 1.6 | 4.8 | 0.00 | 0.00 | 0.00 | 92 | 1019.1 |
| 20260506161550 | 11 | 215 | 3.2 | 9.7 | 0.00 | 0.00 | 0.00 | 92 | 1018.7 |
| 20260506160050 | 11 | 199 | 1.6 | 8.0 | 0.00 | 0.00 | 0.00 | 92 | 1018.8 |
| 20260506154551 | 11 | 202 | 3.2 | 9.7 | 0.00 | 0.00 | 0.00 | 92 | 1018.9 |
| 20260506153053 | 11 | 273 | 1.6 | 9.7 | 0.00 | 0.00 | 0.00 | 91 | 1018.9 |
| 20260506151555 | 12 | 262 | 1.6 | 6.4 | 0.00 | 0.00 | 0.00 | 91 | 1018.8 |
| 20260506150049 | 12 | 182 | 1.6 | 6.4 | 0.00 | 0.00 | 0.00 | 91 | 1018.7 |
| 20260506144603 | 12 | 226 | 0.0 | 4.8 | 0.00 | 0.00 | 0.00 | 91 | 1018.8 |
| 20260506143055 | 12 | 261 | 3.2 | 8.0 | 0.00 | 0.00 | 0.00 | 90 | 1018.8 |
| 20260506141549 | 12 | 190 | 1.6 | 8.0 | 0.00 | 0.00 | 0.00 | 90 | 1018.5 |
| 20260506140053 | 12 | 209 | 3.2 | 6.4 | 0.00 | 0.00 | 0.00 | 89 | 1018.6 |
| 20260506134543 | 11 | 224 | 3.2 | 9.7 | 0.00 | 0.00 | 0.00 | 89 | 1018.4 |
| 20260506133051 | 11 | 223 | 3.2 | 9.7 | 0.00 | 0.00 | 0.00 | 88 | 1018.4 |
| 20260506131552 | 11 | 255 | 3.2 | 9.7 | 0.00 | 0.00 | 0.00 | 88 | 1018.2 |
| 20260506130058 | 11 | 233 | 1.6 | 4.8 | 0.00 | 0.00 | 0.00 | 88 | 1018.1 |
| 20260506124548 | 11 | 260 | 1.6 | 4.8 | 0.00 | 0.00 | 0.00 | 87 | 1017.9 |
| 20260506123052 | 11 | 0 | 0.0 | 6.4 | 0.00 | 0.00 | 0.00 | 87 | 1017.8 |
| 20260506121553 | 12 | 0 | 1.6 | 6.4 | 0.00 | 0.00 | 0.00 | 86 | 1017.8 |
| 20260506120048 | 11 | 264 | 0.0 | 8.0 | 0.00 | 0.00 | 0.00 | 86 | 1017.8 |
| 20260506114551 | 12 | 206 | 0.0 | 8.0 | 0.00 | 0.00 | 0.00 | 86 | 1017.5 |
| 20260506113046 | 12 | 234 | 4.8 | 14.5 | 0.00 | 0.00 | 0.00 | 85 | 1017.5 |
| 20260506111546 | 12 | 0 | 3.2 | 11.3 | 0.00 | 0.00 | 0.00 | 85 | 1017.3 |
| 20260506110049 | 12 | 271 | 1.6 | 6.4 | 0.00 | 0.00 | 0.00 | 85 | 1017.4 |
| 20260506104549 | 12 | 257 | 0.0 | 4.8 | 0.00 | 0.00 | 0.00 | 85 | 1017.3 |
| 20260506103055 | 12 | 228 | 1.6 | 9.7 | 0.00 | 0.00 | 0.00 | 85 | 1017.1 |
| 20260506101554 | 12 | 0 | 1.6 | 6.4 | 0.00 | 0.00 | 0.00 | 85 | 1017.1 |
| 20260506100050 | 12 | 276 | 1.6 | 8.0 | 0.00 | 0.00 | 0.00 | 85 | 1016.8 |
| 20260506094550 | 12 | 271 | 1.6 | 4.8 | 0.00 | 0.00 | 0.00 | 85 | 1016.7 |
| 20260506093049 | 12 | 275 | 1.6 | 12.9 | 0.00 | 0.00 | 0.00 | 85 | 1016.6 |
| 20260506091544 | 12 | 267 | 1.6 | 9.7 | 0.00 | 0.00 | 0.00 | 84 | 1016.5 |
| 20260506090049 | 12 | 225 | 1.6 | 11.3 | 0.00 | 0.00 | 0.00 | 84 | 1016.5 |
| 20260506084602 | 12 | 236 | 1.6 | 9.7 | 0.00 | 0.00 | 0.00 | 83 | 1016.3 |
| 20260506083046 | 12 | 214 | 1.6 | 8.0 | 0.00 | 0.00 | 0.00 | 83 | 1016.1 |
| 20260506081545 | 12 | 0 | 0.0 | 3.2 | 0.00 | 0.00 | 0.00 | 83 | 1016.2 |
| 20260506073052 | 13 | 180 | 0.0 | 4.8 | 0.00 | 0.00 | 0.00 | 81 | 1016.1 |
| 20260506071553 | 13 | 0 | 0.0 | 6.4 | 0.00 | 0.00 | 0.00 | 81 | 1016.1 |
| 20260506061555 | 14 | 215 | 3.2 | 8.0 | 0.00 | 0.00 | 0.00 | 80 | 1015.4 |
| 20260506050108 | 15 | 0 | 0.0 | 4.8 | 0.00 | 0.00 | 0.00 | 77 | 1014.8 |
| 20260506044552 | 15 | 0 | 0.0 | 3.2 | 0.00 | 0.00 | 0.00 | 76 | 1014.8 |
| 20260506043044 | 15 | 148 | 1.6 | 9.7 | 0.00 | 0.00 | 0.00 | 76 | 1014.7 |
| 20260506041545 | 16 | 195 | 0.0 | 4.8 | 0.00 | 0.00 | 0.00 | 75 | 1014.6 |
| 20260506040047 | 16 | 0 | 0.0 | 3.2 | 0.00 | 0.00 | 0.00 | 74 | 1014.4 |
| 20260506034549 | 16 | 0 | 0.0 | 3.2 | 0.00 | 0.00 | 0.00 | 73 | 1014.3 |
| 20260506033050 | 16 | 0 | 0.0 | 4.8 | 0.00 | 0.00 | 0.00 | 72 | 1014.2 |